Flight Track Log - Related Links

Times and Time Zones

All times are in EDT time to prevent confusion due to time zone crossing. See the SWA104 flight status page for this flight to view local times or setup timezone preferences in your user account.

Time Position Orientation Groundspeed Altitude Reporting Facility
EDT Latitude Longitude Course Direction KTS MPH feet Rate Location/Type
Thu 07:55:36 PM 33.9500 -118.4500 287° West 153 176 1,600  Level Southern California TRACON
Thu 07:56:45 PM 33.9386 -118.5147 258° West 202 232 4,100 2,611 Climbing Los Angeles Center
Thu 07:57:47 PM 33.9286 -118.6100 263° West 264 304 7,300 3,387 Climbing Los Angeles Center
Thu 07:58:49 PM 33.9203 -118.7069 264° West 289 333 11,100 3,048 Climbing Los Angeles Center
Thu 07:59:51 PM 33.9181 -118.8114 269° West 318 366 13,600 2,806 Climbing Los Angeles Center
Thu 08:00:53 PM 33.9442 -118.9256 285° West 355 409 16,900 3,000 Climbing Los Angeles Center
Thu 08:01:00 PM 34.0878 -118.9511 287° West  Level FlightAware Approximate
Thu 08:01:55 PM 33.9878 -119.0389 295° West 374 430 19,800  Level Los Angeles Center
Thu 08:02:57 PM 34.0625 -119.1389 312° West 402 463 22,500 2,736 Climbing Los Angeles Center
Thu 08:04:00 PM 34.1658 -119.2567 317° Northwest 423 487 25,500 2,584 Climbing Los Angeles Center
Thu 08:05:14 PM 34.2733 -119.3806 316° Northwest 443 510 28,400 2,294 Climbing Los Angeles Center
Thu 08:06:16 PM 34.3642 -119.4867 316° Northwest 453 521 30,700 2,323 Climbing Los Angeles Center
Thu 08:07:18 PM 34.4542 -119.5906 316° Northwest 449 517 33,200 1,887 Climbing Los Angeles Center
Thu 08:08:20 PM 34.5272 -119.6758 316° Northwest 455 524 34,600 1,344 Climbing Los Angeles Center
Thu 08:09:23 PM 34.6522 -119.8178 317° Northwest 450 518 36,000 672 Climbing Los Angeles Center
Thu 08:10:25 PM 34.7411 -119.9206 316° Northwest 442 509 36,000  Level Los Angeles Center
Thu 08:11:27 PM 34.8300 -120.0219 317° Northwest 439 505 36,000  Level Los Angeles Center
Thu 08:12:28 PM 34.8994 -120.1031 316° Northwest 444 511 36,000  Level Los Angeles Center
Thu 08:13:31 PM 35.0039 -120.2253 316° Northwest 442 509 36,000  Level Los Angeles Center
Thu 08:14:33 PM 35.1075 -120.3492 316° Northwest 439 505 36,000  Level Los Angeles Center
Thu 08:15:35 PM 35.1947 -120.4519 316° Northwest 442 509 36,000  Level Los Angeles Center
Thu 08:16:37 PM 35.2844 -120.5569 316° Northwest 449 517 36,000  Level Los Angeles Center
Thu 08:17:39 PM 35.3700 -120.6619 315° West 444 511 36,000  Level Los Angeles Center
Thu 08:18:42 PM 35.4700 -120.7539 323° Northwest 451 519 36,000  Level Los Angeles Center
Thu 08:19:44 PM 35.5894 -120.8633 323° Northwest 448 516 36,000  Level Los Angeles Center
Thu 08:20:46 PM 35.6833 -120.9514 323° Northwest 450 518 36,000  Level Los Angeles Center
Thu 08:21:48 PM 35.7822 -121.0450 322° Northwest 448 516 36,000  Level Los Angeles Center
Thu 08:22:50 PM 35.8817 -121.1378 323° Northwest 446 513 36,000 -908 Level Los Angeles Center
Thu 08:24:20 PM 36.0381 -121.2883 322° Northwest 446 513 33,700 -1,868 Descending Oakland Center
Thu 08:25:21 PM 36.1361 -121.3819 322° Northwest 446 513 31,300 -1,610 Descending Oakland Center
Thu 08:26:23 PM 36.2353 -121.4769 322° Northwest 451 519 30,400 -927 Descending Oakland Center
Thu 08:27:24 PM 36.3358 -121.5733 322° Northwest 454 522 29,400 -1,902 Descending Oakland Center
Thu 08:28:26 PM 36.4364 -121.6703 322° Northwest 456 525 26,500 -2,976 Descending Oakland Center
Thu 08:29:27 PM 36.5556 -121.7831 323° Northwest 447 514 23,300 -2,683 Descending Oakland Center
Thu 08:30:29 PM 36.6447 -121.8703 322° Northwest 431 496 21,000 -2,049 Descending Oakland Center
Thu 08:31:30 PM 36.7319 -121.9572 321° Northwest 400 460 19,100 -1,610 Descending Oakland Center
Thu 08:32:32 PM 36.8311 -121.9858 347° North 361 415 17,700 -1,756 Descending Oakland Center
Thu 08:33:33 PM 36.9208 -122.0106 348° North 333 383 15,500 -2,244 Descending Oakland Center
Thu 08:34:35 PM 37.0083 -122.0331 348° North 321 369 13,100 -2,390 Descending Oakland Center
Thu 08:35:36 PM 37.1094 -122.0603 348° North 310 357 10,600 -2,146 Descending Oakland Center
Thu 08:36:38 PM 37.1922 -122.0811 349° North 304 350 8,700 -1,561 Descending Oakland Center
Thu 08:37:39 PM 37.2722 -122.1025 348° North 297 342 7,400 -1,220 Descending Oakland Center
Thu 08:38:41 PM 37.3500 -122.1222 349° North 289 333 6,200 -829 Descending Oakland Center
Thu 08:39:42 PM 37.4186 -122.1408 348° North 262 302 5,700 -528 Descending Oakland Center
Thu 08:40:46 PM 37.4833 -122.1667 342° North 207 238 5,100 -814 Descending Northern Cal TRACON
Thu 08:41:40 PM 37.5333 -122.1833 345° North 194 223 4,100 -1,263 Descending Northern Cal TRACON
Thu 08:42:40 PM 37.5667 -122.2333 310° West 180 207 2,700 -1,450 Descending Northern Cal TRACON
Thu 08:43:40 PM 37.5833 -122.2833 293° West 174 200 1,200 -1,100 Descending Northern Cal TRACON
Thu 08:44:40 PM 37.6000 -122.3333 293° West 135 155 500 -455 Descending Northern Cal TRACON
Thu 08:45:52 PM 37.6228 -122.3822 300° West 158 182 200 -250 Descending Oakland Center
Thu 08:47:00 PM 37.6167 -122.3667 North  Level FlightAware Approximate
Thu 08:54:00 PM 37.6191 -122.3752 North  Level Estimated

Login

Don't have an account? Register now (free) for customized features, flight alerts, and more!